createdAt,value
2022-12-15T00:02:15.482Z,8.20
2022-12-15T00:05:00.830Z,9.00
2022-12-15T00:07:46.203Z,6.87
2022-12-15T00:10:31.317Z,9.80
2022-12-15T00:13:16.601Z,6.40
2022-12-15T00:16:01.599Z,6.90
2022-12-15T00:18:46.829Z,6.30
2022-12-15T00:21:32.040Z,8.57
2022-12-15T00:24:16.939Z,6.90
2022-12-15T00:27:02.240Z,7.17
2022-12-15T00:29:47.219Z,5.97
2022-12-15T00:32:32.453Z,7.13
2022-12-15T00:35:17.205Z,6.73
2022-12-15T00:38:02.194Z,6.00
2022-12-15T00:40:28.749Z,6.53
2022-12-15T00:42:55.430Z,6.10
2022-12-15T00:45:41.946Z,6.30
2022-12-15T00:48:08.522Z,6.93
2022-12-15T00:50:53.356Z,5.73
2022-12-15T00:53:40.026Z,5.80
2022-12-15T00:56:26.137Z,5.10
2022-12-15T00:59:11.932Z,6.27
2022-12-15T01:01:57.475Z,5.33
2022-12-15T01:04:42.643Z,6.23
2022-12-15T01:07:27.794Z,5.50
2022-12-15T01:10:12.782Z,6.00
2022-12-15T01:12:58.160Z,5.53
2022-12-15T01:15:43.483Z,5.00
2022-12-15T01:18:28.662Z,4.90
2022-12-15T01:21:08.323Z,7.10
2022-12-15T01:23:35.462Z,5.53
2022-12-15T01:26:02.190Z,5.03
2022-12-15T01:28:28.839Z,7.70
2022-12-15T01:30:55.590Z,6.20
2022-12-15T01:33:22.557Z,5.73
2022-12-15T01:36:07.306Z,5.83
2022-12-15T01:38:33.899Z,7.03
2022-12-15T01:41:10.891Z,7.93
2022-12-15T01:43:39.542Z,6.83
2022-12-15T01:46:13.129Z,5.73
2022-12-15T01:48:57.889Z,5.37
2022-12-15T01:51:32.786Z,7.43
2022-12-15T01:54:04.091Z,5.37
2022-12-15T01:56:37.762Z,5.67
2022-12-15T01:59:07.290Z,6.70
2022-12-15T02:01:34.101Z,6.03
2022-12-15T02:04:00.983Z,6.63
2022-12-15T02:06:28.314Z,5.40
2022-12-15T02:08:57.706Z,5.43
2022-12-15T02:11:31.572Z,6.43
2022-12-15T02:14:04.065Z,5.97
2022-12-15T02:16:53.618Z,5.33
2022-12-15T02:19:47.991Z,6.30
2022-12-15T02:22:53.672Z,6.37
2022-12-15T02:25:32.406Z,6.37
2022-12-15T02:28:07.053Z,6.10
2022-12-15T02:31:11.944Z,5.13
2022-12-15T02:33:46.442Z,5.63
2022-12-15T02:36:32.586Z,4.90
2022-12-15T02:38:59.226Z,5.33
2022-12-15T02:41:46.188Z,4.90
2022-12-15T02:44:29.399Z,6.10
2022-12-15T02:47:27.885Z,4.43
2022-12-15T02:50:06.359Z,4.43
2022-12-15T02:52:55.307Z,4.80
2022-12-15T02:56:00.661Z,5.07
2022-12-15T02:58:51.389Z,6.30
2022-12-15T03:01:25.768Z,5.23
2022-12-15T03:03:52.950Z,5.33
2022-12-15T03:06:20.016Z,5.00
2022-12-15T03:08:46.831Z,4.60
2022-12-15T03:11:13.436Z,4.30
2022-12-15T03:13:40.093Z,4.53
2022-12-15T03:16:06.914Z,4.30
2022-12-15T03:18:33.597Z,4.13
2022-12-15T03:21:00.318Z,4.20
2022-12-15T03:23:27.041Z,5.40
2022-12-15T03:25:53.776Z,5.50
2022-12-15T03:28:20.526Z,4.87
2022-12-15T03:30:50.221Z,4.70
2022-12-15T03:33:18.053Z,3.77
2022-12-15T03:35:44.804Z,5.50
2022-12-15T03:38:11.453Z,6.50
2022-12-15T03:40:38.133Z,7.33
2022-12-15T03:43:04.811Z,6.23
2022-12-15T03:45:31.563Z,6.60
2022-12-15T03:47:58.399Z,7.00
2022-12-15T03:50:27.505Z,6.53
2022-12-15T03:52:56.963Z,6.70
2022-12-15T03:55:24.311Z,6.13
2022-12-15T03:57:51.775Z,5.63
2022-12-15T04:00:20.050Z,5.13
2022-12-15T04:02:50.212Z,5.13
2022-12-15T04:05:31.891Z,6.07
2022-12-15T04:07:59.867Z,4.63
2022-12-15T04:10:33.655Z,5.80
2022-12-15T04:13:05.726Z,7.20
2022-12-15T04:15:32.951Z,7.70
2022-12-15T04:18:02.018Z,7.00
2022-12-15T04:20:29.438Z,7.27
2022-12-15T04:22:56.268Z,8.07
2022-12-15T04:25:42.995Z,7.90
2022-12-15T04:28:29.984Z,6.67
2022-12-15T04:31:22.729Z,7.53
2022-12-15T04:34:10.541Z,5.77
2022-12-15T04:36:57.162Z,6.57
2022-12-15T04:39:42.647Z,7.70
2022-12-15T04:42:28.247Z,6.33
2022-12-15T04:45:20.526Z,6.67
2022-12-15T04:48:06.558Z,6.30
2022-12-15T04:50:52.016Z,7.80
2022-12-15T04:53:38.044Z,8.13
2022-12-15T04:56:23.480Z,8.83
2022-12-15T04:59:09.049Z,8.30
2022-12-15T05:01:54.604Z,10.00
2022-12-15T05:04:42.676Z,10.00
2022-12-15T05:07:28.487Z,9.20
2022-12-15T05:10:15.361Z,8.33
2022-12-15T05:13:01.725Z,7.27
2022-12-15T05:15:47.474Z,6.30
2022-12-15T05:18:32.932Z,6.50
2022-12-15T05:21:18.248Z,5.87
2022-12-15T05:24:03.094Z,7.50
2022-12-15T05:26:52.715Z,7.53
2022-12-15T05:29:38.324Z,7.67
2022-12-15T05:32:05.296Z,8.47
2022-12-15T05:34:33.663Z,9.00
2022-12-15T05:37:02.124Z,9.40
2022-12-15T05:39:28.955Z,11.20
2022-12-15T05:41:56.689Z,10.27
2022-12-15T05:44:24.461Z,10.93
2022-12-15T05:46:51.095Z,7.50
2022-12-15T05:49:18.595Z,7.00
2022-12-15T05:51:47.350Z,7.40
2022-12-15T05:54:16.713Z,5.70
2022-12-15T05:56:43.948Z,7.40
2022-12-15T05:59:10.749Z,7.00
2022-12-15T06:01:37.389Z,9.20
2022-12-15T06:04:04.373Z,7.90
2022-12-15T06:06:31.367Z,9.17
2022-12-15T06:08:58.254Z,8.87
2022-12-15T06:11:25.335Z,8.63
2022-12-15T06:13:52.911Z,8.90
2022-12-15T06:16:21.206Z,7.80
2022-12-15T06:18:50.887Z,8.40
2022-12-15T06:21:19.940Z,12.03
2022-12-15T06:23:47.324Z,11.23
2022-12-15T06:26:29.133Z,7.03
2022-12-15T06:28:58.100Z,9.40
2022-12-15T06:31:26.568Z,9.63
2022-12-15T06:34:01.057Z,10.10
2022-12-15T06:36:28.737Z,19.73
2022-12-15T06:39:01.787Z,14.03
2022-12-15T06:41:30.551Z,11.13
2022-12-15T06:43:58.087Z,8.87
2022-12-15T06:46:26.206Z,9.47
2022-12-15T06:48:53.329Z,11.47
2022-12-15T06:51:20.735Z,8.63
2022-12-15T06:53:52.665Z,10.57
2022-12-15T06:56:25.683Z,9.10
2022-12-15T06:58:55.564Z,8.53
2022-12-15T07:01:24.497Z,9.00
2022-12-15T07:03:52.916Z,9.97
2022-12-15T07:06:20.419Z,9.40
2022-12-15T07:08:54.449Z,10.57
2022-12-15T07:11:22.168Z,9.63
2022-12-15T07:13:53.065Z,9.20
2022-12-15T07:16:21.620Z,9.77
2022-12-15T07:18:48.411Z,10.10
2022-12-15T07:21:15.406Z,9.07
2022-12-15T07:23:58.338Z,8.70
2022-12-15T07:26:26.018Z,8.70
2022-12-15T07:28:53.934Z,8.10
2022-12-15T07:31:21.366Z,8.53
2022-12-15T07:33:48.629Z,9.10
2022-12-15T07:36:15.696Z,9.27
2022-12-15T07:38:42.666Z,8.30
2022-12-15T07:41:10.135Z,7.67
2022-12-15T07:43:37.669Z,9.07
2022-12-15T07:46:05.827Z,10.10
2022-12-15T07:48:33.324Z,9.03
2022-12-15T07:51:11.048Z,8.70
2022-12-15T07:53:42.128Z,8.87
2022-12-15T07:56:09.977Z,8.87
2022-12-15T07:58:37.488Z,10.80
2022-12-15T08:01:09.087Z,9.73
2022-12-15T08:03:37.155Z,17.80
2022-12-15T08:06:10.256Z,11.40
2022-12-15T08:08:37.355Z,9.80
2022-12-15T08:11:14.575Z,8.00
2022-12-15T08:16:29.344Z,7.30
2022-12-15T08:18:57.381Z,6.83
2022-12-15T08:21:24.209Z,7.37
2022-12-15T08:23:51.037Z,10.73
2022-12-15T08:26:18.916Z,10.90
2022-12-15T08:28:46.093Z,8.30
2022-12-15T08:31:17.878Z,6.97
2022-12-15T08:33:45.716Z,6.90
2022-12-15T08:36:14.317Z,6.40
2022-12-15T08:38:41.878Z,8.03
2022-12-15T08:41:10.968Z,10.80
2022-12-15T08:43:42.565Z,8.20
2022-12-15T08:46:14.446Z,7.40
2022-12-15T08:48:41.211Z,7.33
2022-12-15T08:51:08.259Z,6.90
2022-12-15T08:53:35.036Z,7.50
2022-12-15T08:56:06.353Z,9.40
2022-12-15T08:58:33.615Z,7.80
2022-12-15T09:01:06.418Z,10.27
2022-12-15T09:03:34.916Z,8.60
2022-12-15T09:06:06.906Z,8.37
2022-12-15T09:08:34.228Z,8.77
2022-12-15T09:11:01.936Z,9.90
2022-12-15T09:13:29.295Z,7.77
2022-12-15T09:16:10.472Z,8.20
2022-12-15T09:18:37.973Z,7.73
2022-12-15T09:21:06.404Z,8.30
2022-12-15T09:23:34.402Z,9.07
2022-12-15T09:26:03.029Z,7.90
2022-12-15T09:28:30.219Z,8.97
2022-12-15T09:31:08.782Z,8.13
2022-12-15T09:33:36.367Z,6.83
2022-12-15T09:36:04.100Z,7.83
2022-12-15T09:38:31.319Z,12.90
2022-12-15T09:40:58.043Z,14.13
2022-12-15T09:43:35.418Z,12.40
2022-12-15T09:46:08.453Z,9.13
2022-12-15T09:48:40.088Z,8.30
2022-12-15T09:51:09.279Z,7.70
2022-12-15T09:56:33.339Z,9.37
2022-12-15T09:59:13.838Z,7.60
2022-12-15T10:02:12.560Z,9.10
2022-12-15T10:05:06.338Z,8.47
2022-12-15T10:07:37.594Z,8.73
2022-12-15T10:10:21.293Z,13.07
2022-12-15T10:15:50.946Z,13.23
2022-12-15T10:18:23.117Z,11.07
2022-12-15T10:20:53.309Z,12.00
2022-12-15T10:23:20.232Z,12.77
2022-12-15T10:25:51.310Z,12.07
2022-12-15T10:28:33.531Z,11.13
2022-12-15T10:31:02.530Z,8.63
2022-12-15T10:33:47.111Z,10.77
2022-12-15T10:36:16.555Z,7.90
2022-12-15T10:38:50.252Z,8.83
2022-12-15T10:41:26.728Z,8.83
2022-12-15T10:43:54.681Z,8.33
2022-12-15T10:46:29.599Z,9.60
2022-12-15T10:49:01.854Z,7.80
2022-12-15T10:51:33.542Z,9.73
2022-12-15T10:54:15.527Z,8.40
2022-12-15T10:56:54.576Z,8.63
2022-12-15T10:59:38.575Z,9.20
2022-12-15T11:02:29.686Z,9.90
2022-12-15T11:05:15.605Z,8.50
2022-12-15T11:07:46.618Z,9.30
2022-12-15T11:10:22.387Z,8.43
2022-12-15T11:13:14.089Z,8.50
2022-12-15T11:15:43.877Z,8.07
2022-12-15T11:18:42.626Z,10.90
2022-12-15T11:21:17.270Z,8.57
2022-12-15T11:24:09.027Z,7.90
2022-12-15T11:26:55.728Z,7.90
2022-12-15T11:29:34.444Z,8.50
2022-12-15T11:32:06.703Z,7.23
2022-12-15T11:34:39.420Z,11.70
2022-12-15T11:37:24.259Z,10.47
2022-12-15T11:40:15.624Z,9.13
2022-12-15T11:43:04.888Z,11.23
2022-12-15T11:46:13.407Z,10.27
2022-12-15T11:48:53.947Z,8.57
2022-12-15T11:51:26.239Z,7.07
2022-12-15T11:54:40.838Z,9.10
2022-12-15T11:57:35.532Z,9.83
2022-12-15T12:00:06.219Z,9.10
2022-12-15T12:02:56.333Z,8.87
2022-12-15T12:05:41.783Z,10.07
2022-12-15T12:08:45.441Z,11.43
2022-12-15T12:11:15.712Z,11.07
2022-12-15T12:13:53.289Z,12.97
2022-12-15T12:17:09.084Z,12.33
2022-12-15T12:19:42.525Z,12.67
2022-12-15T12:22:22.028Z,14.63
2022-12-15T12:25:12.281Z,10.60
2022-12-15T12:27:41.748Z,10.20
2022-12-15T12:30:17.272Z,8.30
2022-12-15T12:32:54.751Z,8.10
2022-12-15T12:35:40.203Z,10.40
2022-12-15T12:38:10.325Z,8.97
2022-12-15T12:40:52.908Z,8.70
2022-12-15T12:43:33.606Z,11.10
2022-12-15T12:46:06.909Z,10.67
2022-12-15T12:48:37.993Z,9.77
2022-12-15T12:51:32.072Z,8.80
2022-12-15T12:53:59.976Z,11.00
2022-12-15T12:56:34.116Z,8.90
2022-12-15T12:59:00.972Z,9.43
2022-12-15T13:01:32.252Z,10.20
2022-12-15T13:04:12.087Z,12.67
2022-12-15T13:06:38.609Z,10.27
2022-12-15T13:09:17.468Z,9.30
2022-12-15T13:11:52.900Z,9.87
2022-12-15T13:14:30.838Z,7.80
2022-12-15T13:17:28.956Z,10.60
2022-12-15T13:19:59.075Z,8.23
2022-12-15T13:22:43.687Z,9.43
2022-12-15T13:25:51.766Z,7.70
2022-12-15T13:28:40.190Z,7.17
2022-12-15T13:31:19.347Z,8.00
2022-12-15T13:33:55.747Z,7.30
2022-12-15T13:36:37.971Z,9.03
2022-12-15T13:39:27.558Z,8.67
2022-12-15T13:44:51.834Z,7.80
2022-12-15T13:47:29.294Z,9.07
2022-12-15T13:50:06.097Z,10.70
2022-12-15T13:53:17.346Z,10.97
2022-12-15T13:55:37.258Z,8.23
2022-12-15T13:58:12.386Z,9.17
2022-12-15T14:00:39.667Z,9.30
2022-12-15T14:03:10.595Z,11.10
2022-12-15T14:05:39.222Z,8.40
2022-12-15T14:08:16.160Z,8.47
2022-12-15T14:10:49.140Z,8.47
2022-12-15T14:13:26.217Z,10.73
2022-12-15T14:15:56.709Z,11.27
2022-12-15T14:18:33.187Z,8.90
2022-12-15T14:21:00.978Z,9.07
2022-12-15T14:23:40.548Z,8.13
2022-12-15T14:26:11.398Z,7.70
2022-12-15T14:28:40.921Z,9.20
2022-12-15T14:31:13.305Z,7.30
2022-12-15T14:33:44.684Z,9.07
2022-12-15T14:36:18.246Z,8.40
2022-12-15T14:38:54.698Z,8.40
2022-12-15T14:41:45.222Z,7.47
2022-12-15T14:44:38.266Z,9.30
2022-12-15T14:47:18.124Z,9.73
2022-12-15T14:49:45.579Z,8.83
2022-12-15T14:52:42.308Z,9.20
2022-12-15T14:55:21.476Z,10.30
2022-12-15T14:57:48.447Z,9.53
2022-12-15T15:00:35.988Z,10.40
2022-12-15T15:03:06.438Z,11.00
2022-12-15T15:03:36.966Z,7.60
2022-12-15T15:06:05.040Z,8.27
2022-12-15T15:08:34.018Z,7.30
2022-12-15T15:11:05.286Z,8.03
2022-12-15T15:13:40.363Z,8.87
2022-12-15T15:16:08.698Z,8.40
2022-12-15T15:18:35.590Z,8.17
2022-12-15T15:21:07.098Z,8.97
2022-12-15T15:23:34.258Z,9.03
2022-12-15T15:26:10.764Z,9.63
2022-12-15T15:28:39.946Z,10.70
2022-12-15T15:31:25.215Z,13.37
2022-12-15T15:33:52.893Z,9.37
2022-12-15T15:36:19.816Z,10.30
2022-12-15T15:38:46.937Z,11.03
2022-12-15T15:41:20.527Z,12.57
2022-12-15T15:43:47.658Z,12.17
2022-12-15T15:46:23.250Z,29.53
2022-12-15T15:48:54.428Z,20.23
2022-12-15T15:51:21.539Z,16.90
2022-12-15T15:53:48.370Z,13.70
2022-12-15T15:56:16.789Z,17.27
2022-12-15T15:58:43.972Z,15.50
2022-12-15T16:01:13.371Z,17.07
2022-12-15T16:03:41.266Z,15.00
2022-12-15T16:06:17.236Z,13.90
2022-12-15T16:08:44.390Z,12.80
2022-12-15T16:11:14.218Z,10.87
2022-12-15T16:13:40.898Z,10.87
2022-12-15T16:16:17.051Z,14.37
2022-12-15T16:18:43.815Z,16.00
2022-12-15T16:21:14.179Z,17.73
2022-12-15T16:23:42.039Z,18.27
2022-12-15T16:26:15.376Z,24.00
2022-12-15T16:28:42.397Z,20.40
2022-12-15T16:31:15.463Z,15.07
2022-12-15T16:33:42.460Z,12.10
2022-12-15T16:36:13.692Z,10.27
2022-12-15T16:38:41.239Z,9.00
2022-12-15T16:41:12.860Z,7.40
2022-12-15T16:43:44.509Z,7.70
2022-12-15T16:46:15.625Z,8.27
2022-12-15T16:48:42.886Z,9.07
2022-12-15T16:51:16.223Z,10.00
2022-12-15T16:53:43.485Z,10.13
2022-12-15T16:56:14.364Z,12.23
2022-12-15T16:58:41.388Z,12.70
2022-12-15T17:01:10.498Z,12.03
2022-12-15T17:03:37.382Z,11.80
2022-12-15T17:06:06.776Z,12.00
2022-12-15T17:08:49.057Z,13.13
2022-12-15T17:11:19.615Z,12.93
2022-12-15T17:13:48.141Z,13.87
2022-12-15T17:16:15.107Z,14.40
2022-12-15T17:18:42.944Z,13.20
2022-12-15T17:21:19.265Z,11.10
2022-12-15T17:23:48.808Z,10.07
2022-12-15T17:26:29.305Z,12.37
2022-12-15T17:28:59.894Z,9.13
2022-12-15T17:31:32.927Z,10.90
2022-12-15T17:34:02.400Z,10.60
2022-12-15T17:36:29.352Z,10.30
2022-12-15T17:38:59.769Z,8.97
2022-12-15T17:41:59.216Z,7.50
2022-12-15T17:44:33.113Z,16.17
2022-12-15T17:47:01.122Z,9.23
2022-12-15T17:49:34.727Z,9.83
2022-12-15T17:52:03.719Z,10.43
2022-12-15T17:54:30.311Z,9.70
2022-12-15T17:56:57.109Z,10.47
2022-12-15T17:59:23.791Z,10.80
2022-12-15T18:01:50.657Z,11.63
2022-12-15T18:04:17.444Z,13.67
2022-12-15T18:06:44.476Z,12.50
2022-12-15T18:09:16.382Z,16.97
2022-12-15T18:11:45.286Z,14.73
2022-12-15T18:14:17.450Z,11.70
2022-12-15T18:16:44.742Z,9.57
2022-12-15T18:19:11.747Z,5.50
2022-12-15T18:21:38.416Z,4.93
2022-12-15T18:24:13.142Z,10.67
2022-12-15T18:26:39.917Z,11.23
2022-12-15T18:29:14.341Z,11.47
2022-12-15T18:31:41.973Z,10.70
2022-12-15T18:34:13.425Z,10.57
2022-12-15T18:36:40.337Z,10.73
2022-12-15T18:39:23.336Z,11.93
2022-12-15T18:41:50.844Z,12.60
2022-12-15T18:44:28.697Z,12.10
2022-12-15T18:46:55.596Z,11.30
2022-12-15T18:49:23.461Z,11.30
2022-12-15T18:51:50.504Z,12.33
2022-12-15T18:54:19.988Z,12.47
2022-12-15T18:56:46.706Z,11.00
2022-12-15T18:59:15.791Z,12.13
2022-12-15T19:01:44.121Z,12.43
2022-12-15T19:04:12.275Z,12.90
2022-12-15T19:06:40.525Z,14.00
2022-12-15T19:09:21.766Z,13.70
2022-12-15T19:12:08.220Z,13.70
2022-12-15T19:14:43.118Z,15.07
2022-12-15T19:17:37.168Z,13.63
2022-12-15T19:20:25.932Z,13.60
2022-12-15T19:22:52.916Z,12.30
2022-12-15T19:25:25.557Z,11.93
2022-12-15T19:27:59.413Z,13.20
2022-12-15T19:30:28.944Z,12.53
2022-12-15T19:32:55.823Z,12.30
2022-12-15T19:35:22.520Z,16.07
2022-12-15T19:37:50.022Z,15.00
2022-12-15T19:40:22.250Z,12.90
2022-12-15T19:42:49.321Z,12.73
2022-12-15T19:45:27.751Z,12.20
2022-12-15T19:47:55.183Z,11.07
2022-12-15T19:50:24.500Z,9.87
2022-12-15T19:52:54.827Z,9.73
2022-12-15T19:55:25.991Z,11.70
2022-12-15T19:57:52.751Z,10.37
2022-12-15T20:00:22.030Z,9.57
2022-12-15T20:02:51.451Z,10.40
2022-12-15T20:05:19.615Z,8.43
2022-12-15T20:07:48.094Z,4.17
2022-12-15T20:10:25.964Z,4.67
2022-12-15T20:12:53.196Z,3.20
2022-12-15T20:15:22.761Z,8.00
2022-12-15T20:17:50.763Z,10.67
2022-12-15T20:20:19.445Z,10.23
2022-12-15T20:22:48.128Z,10.50
2022-12-15T20:25:16.938Z,9.90
2022-12-15T20:27:43.887Z,10.13
2022-12-15T20:30:25.329Z,10.80
2022-12-15T20:32:52.575Z,11.07
2022-12-15T20:35:21.360Z,10.00
2022-12-15T20:37:48.610Z,12.23
2022-12-15T20:40:18.409Z,9.80
2022-12-15T20:42:45.259Z,9.80
2022-12-15T20:45:21.303Z,10.90
2022-12-15T20:47:49.280Z,10.77
2022-12-15T20:50:28.970Z,10.17
2022-12-15T20:52:55.591Z,9.40
2022-12-15T20:55:22.389Z,11.60
2022-12-15T20:57:49.518Z,13.57
2022-12-15T21:00:18.276Z,11.00
2022-12-15T21:02:46.100Z,9.83
2022-12-15T21:05:21.610Z,10.93
2022-12-15T21:07:48.535Z,11.37
2022-12-15T21:10:17.065Z,10.30
2022-12-15T21:12:45.963Z,9.50
2022-12-15T21:15:23.318Z,6.17
2022-12-15T21:18:11.015Z,4.83
2022-12-15T21:20:41.151Z,3.30
2022-12-15T21:23:19.734Z,1.90
2022-12-15T21:25:47.331Z,9.73
2022-12-15T21:28:14.524Z,13.37
2022-12-15T21:30:42.216Z,15.83
2022-12-15T21:33:08.981Z,12.83
2022-12-15T21:35:36.252Z,12.33
2022-12-15T21:38:03.701Z,13.93
2022-12-15T21:40:30.323Z,13.30
2022-12-15T21:42:57.196Z,14.27
2022-12-15T21:45:25.441Z,13.07
2022-12-15T21:48:12.664Z,13.90
2022-12-15T21:50:39.664Z,12.53
2022-12-15T21:53:06.642Z,9.83
2022-12-15T21:55:33.289Z,4.13
2022-12-15T21:57:59.932Z,2.67
2022-12-15T22:00:26.669Z,11.50
2022-12-15T22:02:53.791Z,12.00
2022-12-15T22:05:32.525Z,11.30
2022-12-15T22:08:05.449Z,11.67
2022-12-15T22:10:32.034Z,10.80
2022-12-15T22:12:59.896Z,11.63
2022-12-15T22:15:26.712Z,17.00
2022-12-15T22:17:53.313Z,14.97
2022-12-15T22:20:22.383Z,10.20
2022-12-15T22:22:49.296Z,10.80
2022-12-15T22:25:23.016Z,10.80
2022-12-15T22:27:50.137Z,10.27
2022-12-15T22:30:24.440Z,11.63
2022-12-15T22:32:51.334Z,10.53
2022-12-15T22:35:20.422Z,9.97
2022-12-15T22:37:49.580Z,9.70
2022-12-15T22:40:17.546Z,10.13
2022-12-15T22:42:46.914Z,11.50
2022-12-15T22:45:16.241Z,12.30
2022-12-15T22:47:43.576Z,13.20
2022-12-15T22:50:19.780Z,11.73
2022-12-15T22:52:46.965Z,10.00
2022-12-15T22:55:15.587Z,9.80
2022-12-15T22:57:47.562Z,10.50
2022-12-15T23:00:14.725Z,10.17
2022-12-15T23:02:43.668Z,10.70
2022-12-15T23:05:12.804Z,10.90
2022-12-15T23:07:39.364Z,10.43
2022-12-15T23:10:25.110Z,11.43
2022-12-15T23:12:54.485Z,11.37
2022-12-15T23:15:41.516Z,10.30
2022-12-15T23:18:08.652Z,12.60
2022-12-15T23:20:35.328Z,12.90
2022-12-15T23:23:02.000Z,11.47
2022-12-15T23:25:28.740Z,12.20
2022-12-15T23:27:55.679Z,13.40
2022-12-15T23:30:22.350Z,11.87
2022-12-15T23:32:49.001Z,10.90
2022-12-15T23:35:16.016Z,11.60
2022-12-15T23:37:42.535Z,11.87
2022-12-15T23:40:09.672Z,11.07
2022-12-15T23:42:36.311Z,13.17
2022-12-15T23:45:02.998Z,11.17
2022-12-15T23:47:29.812Z,12.90
2022-12-15T23:49:56.375Z,12.73
2022-12-15T23:52:23.072Z,12.80
2022-12-15T23:54:49.655Z,12.37
2022-12-15T23:57:17.380Z,12.70
2022-12-15T23:59:43.946Z,13.50
